Time;durP1;ratioP1;P1;durP2;ratioP2;P2;SDS_P1;SDS_P2;PMS_P1;PMS_P2;Temp;Humidity;BMP_temperature;BMP_pressure;BME280_temperature;BME280_humidity;BME280_pressure;Samples;Min_cycle;Max_cycle;Signal;HPM_P1;HPM_P2
2022/02/05 00:02:49;;;;;;;1999.90;642.53;;;4.00;99.90;;;;;;5073663;28;20442;-78
2022/02/05 00:05:24;;;;;;;1999.90;721.17;;;4.00;99.90;;;;;;5073772;28;20812;-78
2022/02/05 00:08:08;;;;;;;1999.90;694.03;;;3.90;99.90;;;;;;5074066;28;20463;-78
2022/02/05 00:19:59;;;;;;;1999.90;804.47;;;3.90;99.90;;;;;;5065270;28;20514;-78
2022/02/05 00:38:14;;;;;;;1999.90;614.67;;;3.80;99.90;;;;;;5055318;28;20549;-78
2022/02/05 00:39:17;;;;;;;1999.90;553.37;;;3.90;99.90;;;;;;5072821;28;21027;-77
2022/02/05 00:41:53;;;;;;;1999.90;570.47;;;3.90;99.90;;;;;;5073192;28;20826;-77
2022/02/05 00:44:21;;;;;;;1999.90;449.03;;;3.90;99.90;;;;;;5059780;28;20527;-78
2022/02/05 00:46:51;;;;;;;1272.27;280.90;;;3.90;99.90;;;;;;5058760;28;20476;-77
2022/02/05 00:49:19;;;;;;;1999.90;507.33;;;3.90;99.90;;;;;;5061246;28;20844;-78
2022/02/05 00:51:50;;;;;;;1678.43;335.60;;;3.90;99.90;;;;;;5058630;28;20546;-78
2022/02/05 00:54:23;;;;;;;1511.83;307.67;;;3.90;99.90;;;;;;5058602;28;20513;-78
2022/02/05 00:59:33;;;;;;;1970.50;405.07;;;3.90;99.90;;;;;;5063636;28;20575;-77
2022/02/05 01:02:01;;;;;;;1346.43;307.07;;;3.90;99.90;;;;;;5058539;28;20557;-78
2022/02/05 01:04:30;;;;;;;1199.00;264.90;;;3.90;99.90;;;;;;5058547;28;20455;-77
2022/02/05 01:06:58;;;;;;;1085.90;239.13;;;3.90;99.90;;;;;;5058449;28;20456;-78
2022/02/05 01:09:28;;;;;;;1650.30;316.50;;;4.00;99.90;;;;;;5058215;28;20563;-78
2022/02/05 01:11:58;;;;;;;1626.03;324.60;;;4.00;99.90;;;;;;5076499;28;20532;-78
2022/02/05 01:14:31;;;;;;;1999.90;504.87;;;4.00;99.90;;;;;;5058188;28;20452;-78
2022/02/05 01:17:05;;;;;;;1779.77;315.70;;;4.00;99.90;;;;;;5071293;28;20519;-78
2022/02/05 01:22:33;;;;;;;1999.90;509.83;;;4.00;99.90;;;;;;5030044;28;21043;-77
2022/02/05 01:25:03;;;;;;;1999.90;547.73;;;4.00;99.90;;;;;;5055710;28;20459;-78
2022/02/05 01:27:39;;;;;;;1999.90;403.27;;;4.00;99.90;;;;;;5057927;28;20562;-77
2022/02/05 01:30:17;;;;;;;1999.90;493.03;;;4.00;99.90;;;;;;5081189;28;21034;-78
2022/02/05 01:32:54;;;;;;;1999.90;376.73;;;4.00;99.90;;;;;;5078091;28;20475;-77
2022/02/05 01:35:31;;;;;;;1999.90;379.97;;;4.00;99.90;;;;;;5078019;28;20450;-78
2022/02/05 01:49:54;;;;;;;1999.90;720.23;;;4.00;99.90;;;;;;5057614;28;20564;-78
2022/02/05 01:52:26;;;;;;;1999.90;663.80;;;3.90;99.90;;;;;;5064366;28;20455;-78
2022/02/05 01:55:15;;;;;;;1999.90;600.90;;;3.90;99.90;;;;;;5078390;28;20947;-77
2022/02/05 01:57:55;;;;;;;1999.90;566.63;;;3.90;99.90;;;;;;5077566;28;20501;-78
2022/02/05 02:06:08;;;;;;;1999.90;594.77;;;3.90;99.90;;;;;;5077600;28;20526;-77
2022/02/05 02:11:35;;;;;;;1999.90;667.10;;;3.90;99.90;;;;;;5057237;28;20431;-77
2022/02/05 02:19:54;;;;;;;1999.90;675.47;;;3.80;99.90;;;;;;5054153;28;20471;-77
2022/02/05 02:22:29;;;;;;;1999.90;714.07;;;3.90;99.90;;;;;;5057677;28;20551;-78
2022/02/05 02:25:05;;;;;;;1999.90;645.17;;;3.80;99.90;;;;;;5073314;28;20501;-77
2022/02/05 02:27:40;;;;;;;1999.90;698.97;;;3.80;99.90;;;;;;5094778;28;20846;-78
2022/02/05 02:30:15;;;;;;;1999.90;643.70;;;3.80;99.90;;;;;;5076349;28;20463;-78
2022/02/05 02:32:48;;;;;;;1999.90;693.00;;;3.80;99.90;;;;;;5077321;28;20523;-77
2022/02/05 02:35:21;;;;;;;1999.90;642.00;;;3.80;99.90;;;;;;5073107;28;20499;-77
2022/02/05 02:37:55;;;;;;;1999.90;808.93;;;3.80;99.90;;;;;;5056795;28;20804;-77
2022/02/05 02:40:36;;;;;;;1999.90;584.53;;;3.80;99.90;;;;;;5077911;28;20475;-77
2022/02/05 02:43:08;;;;;;;1999.90;723.23;;;3.80;99.90;;;;;;5056388;28;20877;-77
2022/02/05 02:45:37;;;;;;;1999.90;500.10;;;3.80;99.90;;;;;;5056608;28;20540;-79
2022/02/05 02:48:05;;;;;;;1999.90;620.03;;;3.80;99.90;;;;;;5056265;28;20463;-77
2022/02/05 02:56:25;;;;;;;1999.90;638.73;;;3.80;99.90;;;;;;5056569;28;20448;-77
2022/02/05 02:59:23;;;;;;;1999.90;688.97;;;3.90;99.90;;;;;;4996000;28;20475;-77
2022/02/05 03:01:58;;;;;;;1999.90;698.93;;;3.90;99.90;;;;;;5019032;28;20470;-77
2022/02/05 03:04:28;;;;;;;1999.90;640.53;;;3.80;99.90;;;;;;5051968;28;20473;-78
2022/02/05 03:06:56;;;;;;;1999.90;605.57;;;3.90;99.90;;;;;;5076256;28;20803;-77
2022/02/05 03:09:26;;;;;;;1999.90;598.80;;;3.80;99.90;;;;;;5076030;28;20494;-77
2022/02/05 03:11:54;;;;;;;1999.90;618.80;;;3.80;99.90;;;;;;5082941;28;20532;-77
2022/02/05 03:14:22;;;;;;;1999.90;658.67;;;3.80;99.90;;;;;;5073962;28;20874;-77
2022/02/05 03:16:52;;;;;;;1999.90;655.23;;;3.80;99.90;;;;;;5074013;28;20912;-77
2022/02/05 03:19:20;;;;;;;1999.90;699.20;;;3.80;99.90;;;;;;5056267;28;20465;-78
2022/02/05 03:21:48;;;;;;;1999.90;636.10;;;3.80;99.90;;;;;;5057422;28;20471;-77
2022/02/05 03:24:16;;;;;;;1999.90;675.97;;;3.80;99.90;;;;;;5074016;28;20448;-77
2022/02/05 03:26:46;;;;;;;1999.90;664.40;;;3.80;99.90;;;;;;5075831;28;20440;-78
2022/02/05 03:29:14;;;;;;;1999.90;727.90;;;3.80;99.90;;;;;;5076040;28;20464;-77
2022/02/05 03:31:43;;;;;;;1999.90;604.27;;;3.80;99.90;;;;;;5057282;28;20961;-77
2022/02/05 03:34:11;;;;;;;1999.90;608.67;;;3.80;99.90;;;;;;5073378;28;20800;-77
2022/02/05 03:36:41;;;;;;;1999.90;550.93;;;3.80;99.90;;;;;;5074288;28;20428;-77
2022/02/05 03:39:09;;;;;;;1999.90;611.07;;;3.80;99.90;;;;;;5055676;28;20556;-78
2022/02/05 03:41:37;;;;;;;1999.90;665.67;;;3.90;99.90;;;;;;5063067;28;20455;-77
2022/02/05 03:44:07;;;;;;;1999.90;396.17;;;3.90;99.90;;;;;;5062181;28;20505;-78
2022/02/05 03:46:35;;;;;;;1999.90;565.27;;;3.90;99.90;;;;;;5090773;28;20444;-78
2022/02/05 03:49:04;;;;;;;1999.90;582.60;;;3.90;99.90;;;;;;5076151;28;20870;-77
2022/02/05 03:51:32;;;;;;;1999.90;609.77;;;3.90;99.90;;;;;;5093826;28;20523;-77
2022/02/05 03:54:01;;;;;;;1999.90;592.47;;;3.90;99.90;;;;;;5093776;28;20428;-77
2022/02/05 03:56:29;;;;;;;1999.90;646.13;;;3.90;99.90;;;;;;5075805;28;20553;-77
2022/02/05 03:58:57;;;;;;;1999.90;721.13;;;4.00;99.90;;;;;;5075537;28;20894;-77
2022/02/05 04:01:27;;;;;;;1999.90;588.93;;;4.00;99.90;;;;;;5059588;28;20561;-78
2022/02/05 04:03:55;;;;;;;1999.90;641.23;;;4.00;99.90;;;;;;5073425;28;20461;-77
2022/02/05 04:06:23;;;;;;;1999.90;584.70;;;4.00;99.90;;;;;;5057140;28;20969;-77
2022/02/05 04:08:54;;;;;;;1999.90;649.73;;;4.00;99.90;;;;;;5055633;28;20484;-77
2022/02/05 04:11:33;;;;;;;1999.90;527.10;;;4.00;99.90;;;;;;5071146;28;20444;-78
2022/02/05 04:16:51;;;;;;;1999.90;943.17;;;4.00;99.90;;;;;;5075499;28;20429;-77
2022/02/05 04:19:20;;;;;;;1999.90;565.67;;;4.00;99.90;;;;;;5079418;28;20475;-77
2022/02/05 04:21:48;;;;;;;1999.90;617.67;;;4.00;99.90;;;;;;5064747;28;20465;-77
2022/02/05 04:24:17;;;;;;;1999.90;631.30;;;4.00;99.90;;;;;;5058980;28;21063;-78
2022/02/05 04:26:45;;;;;;;1999.90;625.60;;;4.10;99.90;;;;;;5059091;28;20449;-78
2022/02/05 04:29:13;;;;;;;1999.90;620.47;;;4.10;99.90;;;;;;5059049;28;20482;-77
2022/02/05 04:31:42;;;;;;;1999.90;596.43;;;4.10;99.90;;;;;;5073629;28;20962;-77
2022/02/05 04:34:11;;;;;;;1999.90;614.57;;;4.10;99.90;;;;;;5058800;28;20551;-77
2022/02/05 04:36:39;;;;;;;1999.90;520.70;;;4.10;99.90;;;;;;5058934;28;20534;-77
2022/02/05 04:39:12;;;;;;;1999.90;600.97;;;4.10;99.90;;;;;;5075504;28;20572;-78
2022/02/05 04:41:48;;;;;;;1999.90;567.77;;;4.10;99.90;;;;;;5075603;28;20433;-77
2022/02/05 04:44:30;;;;;;;1999.90;579.13;;;4.10;99.90;;;;;;5058955;28;20828;-78
2022/02/05 04:58:12;;;;;;;1999.90;563.13;;;4.10;99.90;;;;;;5050585;28;20544;-77
2022/02/05 05:03:44;;;;;;;1999.90;602.03;;;4.10;99.90;;;;;;5075325;28;20964;-78
2022/02/05 05:06:31;;;;;;;1999.90;632.93;;;4.10;99.90;;;;;;5061697;28;20891;-78
2022/02/05 05:09:13;;;;;;;1999.90;573.03;;;4.10;99.90;;;;;;5079760;28;20468;-77
2022/02/05 05:12:02;;;;;;;1999.90;702.70;;;4.10;99.90;;;;;;5058493;28;20448;-78
2022/02/05 05:20:03;;;;;;;1999.90;539.30;;;4.10;99.90;;;;;;5076119;28;20517;-78
2022/02/05 05:22:33;;;;;;;1999.90;492.50;;;4.10;99.90;;;;;;5077917;28;20472;-77
2022/02/05 05:25:02;;;;;;;1999.90;679.77;;;4.20;99.90;;;;;;5096217;28;20450;-77
2022/02/05 05:27:30;;;;;;;1999.90;478.40;;;4.20;99.90;;;;;;5078773;28;20436;-77
2022/02/05 05:29:59;;;;;;;1999.90;707.13;;;4.20;99.90;;;;;;5057053;28;20483;-78
2022/02/05 05:32:28;;;;;;;1999.90;565.33;;;4.20;99.90;;;;;;5057655;28;20456;-77
2022/02/05 05:34:56;;;;;;;1999.90;882.13;;;4.20;99.90;;;;;;5057757;28;20571;-78
2022/02/05 05:37:24;;;;;;;1999.90;534.33;;;4.20;99.90;;;;;;5096412;28;20448;-77
2022/02/05 05:39:54;;;;;;;1999.90;720.47;;;4.20;99.90;;;;;;5096098;28;20452;-77
2022/02/05 05:42:25;;;;;;;1999.90;600.43;;;4.20;99.90;;;;;;5077820;28;20451;-77
2022/02/05 05:45:15;;;;;;;1999.90;575.70;;;4.20;99.90;;;;;;5075687;28;20818;-77
2022/02/05 05:47:55;;;;;;;1999.90;677.40;;;4.20;99.90;;;;;;5068345;28;20454;-77
2022/02/05 05:53:12;;;;;;;1999.90;638.13;;;4.10;99.90;;;;;;5077629;28;20521;-78
2022/02/05 05:55:43;;;;;;;1999.90;557.67;;;4.10;99.90;;;;;;5095992;28;20446;-78
2022/02/05 05:58:12;;;;;;;1999.90;618.93;;;4.10;99.90;;;;;;5077275;28;20544;-77
2022/02/05 06:00:40;;;;;;;1999.90;707.97;;;4.10;99.90;;;;;;5072517;28;20464;-77
2022/02/05 06:03:09;;;;;;;1999.90;564.07;;;4.10;99.90;;;;;;5065614;28;20472;-77
2022/02/05 06:05:37;;;;;;;1999.90;809.47;;;4.10;99.90;;;;;;5057368;28;20487;-77
2022/02/05 06:08:10;;;;;;;1999.90;701.07;;;4.10;99.90;;;;;;5081094;28;20953;-78
2022/02/05 06:10:39;;;;;;;1999.90;728.20;;;4.10;99.90;;;;;;5077113;28;20455;-77
2022/02/05 06:13:09;;;;;;;1999.90;552.60;;;4.10;99.90;;;;;;5095141;28;20952;-77
2022/02/05 06:15:39;;;;;;;1999.90;811.67;;;4.00;99.90;;;;;;5067896;28;20472;-77
2022/02/05 06:18:08;;;;;;;1999.90;619.33;;;4.00;99.90;;;;;;5075117;28;20444;-77
2022/02/05 06:20:38;;;;;;;1999.90;827.20;;;4.00;99.90;;;;;;5059628;28;20447;-78
2022/02/05 06:23:07;;;;;;;1999.90;643.13;;;4.00;99.90;;;;;;5073491;28;20454;-77
2022/02/05 06:25:38;;;;;;;1999.90;808.13;;;4.10;99.90;;;;;;5075916;28;20879;-78
2022/02/05 06:28:10;;;;;;;1999.90;641.80;;;4.00;99.90;;;;;;5076691;28;20968;-77
2022/02/05 06:30:39;;;;;;;1999.90;754.17;;;4.10;99.90;;;;;;5095550;28;21172;-77
2022/02/05 06:33:08;;;;;;;1999.90;789.57;;;4.10;99.90;;;;;;5095161;28;20994;-77
2022/02/05 06:35:36;;;;;;;1999.90;665.17;;;4.10;99.90;;;;;;5076797;28;20455;-76
2022/02/05 06:38:04;;;;;;;1999.90;991.50;;;4.10;99.90;;;;;;5076545;28;20551;-77
2022/02/05 06:40:33;;;;;;;1999.90;663.97;;;4.10;99.90;;;;;;5076375;28;20443;-77
2022/02/05 06:43:01;;;;;;;1999.90;886.67;;;4.10;99.90;;;;;;5090189;28;20448;-77
2022/02/05 06:45:31;;;;;;;1999.90;709.97;;;4.10;99.90;;;;;;5060017;28;20523;-78
2022/02/05 06:47:59;;;;;;;1999.90;761.00;;;4.00;99.90;;;;;;5069565;28;20551;-77
2022/02/05 06:50:27;;;;;;;1999.90;817.17;;;4.00;99.90;;;;;;5076501;28;20539;-78
2022/02/05 06:52:56;;;;;;;1999.90;825.63;;;4.00;99.90;;;;;;5094871;28;20448;-77
2022/02/05 06:55:24;;;;;;;1999.90;872.47;;;4.00;99.90;;;;;;5076288;28;20814;-79
2022/02/05 06:57:52;;;;;;;1999.90;804.40;;;4.00;99.90;;;;;;5094455;28;20449;-77
2022/02/05 07:00:21;;;;;;;1999.90;837.67;;;4.00;99.90;;;;;;5092583;28;20964;-77
2022/02/05 07:02:51;;;;;;;1999.90;838.40;;;3.90;99.90;;;;;;5056646;28;20485;-78
2022/02/05 07:05:19;;;;;;;1999.90;806.93;;;3.90;99.90;;;;;;5056995;28;20995;-77
2022/02/05 07:07:47;;;;;;;1999.90;811.10;;;3.90;99.90;;;;;;5056439;28;20447;-78
2022/02/05 07:10:15;;;;;;;1999.90;813.43;;;3.90;99.90;;;;;;5056145;28;20836;-77
2022/02/05 07:12:59;;;;;;;1999.90;740.17;;;3.90;99.90;;;;;;5056362;28;20517;-77
2022/02/05 07:15:31;;;;;;;1999.90;723.57;;;3.90;99.90;;;;;;5056040;28;20444;-78
2022/02/05 07:18:12;;;;;;;1999.90;850.97;;;3.90;99.90;;;;;;5085027;28;21028;-77
2022/02/05 07:20:44;;;;;;;1999.90;879.90;;;3.90;99.90;;;;;;5055980;28;20449;-77
2022/02/05 07:31:27;;;;;;;1999.90;857.70;;;3.90;99.90;;;;;;5056051;28;20455;-77
2022/02/05 07:33:57;;;;;;;1999.90;856.47;;;3.90;99.90;;;;;;5074079;28;20436;-78
2022/02/05 07:36:25;;;;;;;1999.90;771.77;;;3.90;99.90;;;;;;5056030;28;20437;-78
2022/02/05 07:38:53;;;;;;;1999.90;772.13;;;3.90;99.90;;;;;;5055623;28;20472;-78
2022/02/05 07:41:22;;;;;;;1999.90;854.40;;;3.90;99.90;;;;;;5073876;28;20958;-77
2022/02/05 07:43:50;;;;;;;1999.90;824.57;;;3.90;99.90;;;;;;5073891;28;20440;-78
2022/02/05 07:46:19;;;;;;;1999.90;804.33;;;3.90;99.90;;;;;;5058931;28;20456;-77
2022/02/05 07:48:47;;;;;;;1999.90;860.53;;;3.90;99.90;;;;;;5076375;28;20531;-77
2022/02/05 07:51:17;;;;;;;1999.90;809.67;;;3.90;99.90;;;;;;5065098;28;20863;-77
2022/02/05 07:53:45;;;;;;;1999.90;679.47;;;3.90;99.90;;;;;;5077685;28;20941;-78
2022/02/05 07:56:14;;;;;;;1999.90;761.47;;;3.90;99.90;;;;;;5078051;28;20433;-77
2022/02/05 07:58:42;;;;;;;1999.90;651.37;;;3.90;99.90;;;;;;5077508;28;20482;-77
2022/02/05 08:01:11;;;;;;;1999.90;742.87;;;4.00;99.90;;;;;;5059588;28;20547;-77
2022/02/05 08:03:39;;;;;;;1999.90;649.60;;;4.00;99.90;;;;;;5077523;28;20446;-77
2022/02/05 08:06:14;;;;;;;1999.90;747.07;;;4.00;99.90;;;;;;5059775;28;20475;-77
2022/02/05 08:08:47;;;;;;;1999.90;750.87;;;4.00;99.90;;;;;;5077729;28;20491;-77
2022/02/05 08:11:19;;;;;;;1999.90;800.80;;;4.00;99.90;;;;;;5079895;28;20440;-77
2022/02/05 08:13:50;;;;;;;1999.90;861.07;;;4.00;99.90;;;;;;5060480;28;20985;-77
2022/02/05 08:16:45;;;;;;;1999.90;792.73;;;4.10;99.90;;;;;;5088251;28;20440;-77
2022/02/05 08:19:13;;;;;;;1999.90;809.10;;;4.10;99.90;;;;;;5079376;28;20554;-77
2022/02/05 08:21:42;;;;;;;1999.90;787.23;;;4.10;99.90;;;;;;5070178;28;20958;-77
2022/02/05 08:24:11;;;;;;;1999.90;650.33;;;4.10;99.90;;;;;;5079276;28;20451;-77
2022/02/05 08:26:40;;;;;;;1999.90;659.53;;;4.10;99.90;;;;;;5079307;28;20450;-78
2022/02/05 08:29:10;;;;;;;1999.90;744.67;;;4.10;99.90;;;;;;5079101;28;20839;-78
2022/02/05 08:31:38;;;;;;;1999.90;754.73;;;4.20;99.90;;;;;;5066457;28;20455;-77
2022/02/05 08:34:06;;;;;;;1999.90;640.33;;;4.20;99.90;;;;;;5076919;28;20449;-77
2022/02/05 08:36:41;;;;;;;1999.90;775.73;;;4.20;99.90;;;;;;5076917;28;20440;-78
2022/02/05 08:39:09;;;;;;;1999.90;761.40;;;4.20;99.90;;;;;;5077209;28;20509;-78
2022/02/05 08:41:40;;;;;;;1999.90;528.93;;;4.20;99.90;;;;;;5084506;28;20447;-77
2022/02/05 08:44:09;;;;;;;1999.90;736.90;;;4.30;99.90;;;;;;5078717;28;20875;-78
2022/02/05 08:46:37;;;;;;;1999.90;733.03;;;4.30;99.90;;;;;;5065758;28;20453;-77
2022/02/05 08:49:06;;;;;;;1999.90;765.67;;;4.30;99.90;;;;;;5097166;28;20554;-77
2022/02/05 08:51:34;;;;;;;1999.90;544.43;;;4.40;99.90;;;;;;5096479;28;20803;-78
2022/02/05 08:54:03;;;;;;;1999.90;648.20;;;4.40;99.90;;;;;;5078547;28;20547;-77
2022/02/05 08:56:31;;;;;;;1999.90;668.43;;;4.40;99.90;;;;;;5078626;28;20547;-78
2022/02/05 08:59:02;;;;;;;1999.90;611.73;;;4.50;99.90;;;;;;5075492;28;20530;-77
2022/02/05 09:01:42;;;;;;;1999.90;598.17;;;4.50;99.90;;;;;;5077159;28;20445;-77
2022/02/05 09:04:18;;;;;;;1999.90;651.43;;;4.50;99.90;;;;;;5074468;28;20481;-77
2022/02/05 09:06:47;;;;;;;1999.90;610.87;;;4.60;99.90;;;;;;5091326;28;20955;-77
2022/02/05 09:09:28;;;;;;;1999.90;558.03;;;4.70;99.90;;;;;;5096745;28;20546;-77
2022/02/05 09:12:14;;;;;;;1999.90;559.43;;;4.70;99.90;;;;;;5078580;28;20539;-78
2022/02/05 09:14:47;;;;;;;1999.90;525.77;;;4.80;99.90;;;;;;5078647;28;20633;-77
2022/02/05 09:17:16;;;;;;;1999.90;578.07;;;4.80;99.90;;;;;;5096879;28;20513;-77
2022/02/05 09:19:46;;;;;;;1940.17;426.47;;;4.90;99.90;;;;;;5078221;28;20507;-77
2022/02/05 09:22:14;;;;;;;1999.90;514.40;;;4.90;99.90;;;;;;5078140;28;20547;-78
2022/02/05 09:24:42;;;;;;;1999.90;835.70;;;4.90;99.90;;;;;;5078150;28;20505;-76
2022/02/05 09:27:12;;;;;;;1587.00;372.47;;;4.90;99.90;;;;;;5077151;28;20452;-77
2022/02/05 09:29:46;;;;;;;1862.50;460.10;;;5.00;99.90;;;;;;5071111;28;20480;-77
2022/02/05 09:32:15;;;;;;;1999.90;547.47;;;5.00;99.90;;;;;;5079514;28;20795;-77
2022/02/05 09:34:43;;;;;;;1999.90;471.80;;;5.00;99.90;;;;;;5057722;28;20511;-77
2022/02/05 09:37:12;;;;;;;1924.40;436.20;;;5.10;99.90;;;;;;5058209;28;20452;-77
2022/02/05 09:39:40;;;;;;;1999.90;472.57;;;5.10;99.90;;;;;;5076064;28;20467;-77
2022/02/05 09:42:11;;;;;;;1200.30;237.87;;;5.10;99.90;;;;;;5057752;28;20453;-77
2022/02/05 09:44:39;;;;;;;1999.90;478.83;;;5.10;99.90;;;;;;5080643;28;20977;-77
2022/02/05 09:47:08;;;;;;;1118.20;187.23;;;5.20;99.90;;;;;;5077632;28;20436;-77
2022/02/05 09:49:38;;;;;;;1472.47;272.43;;;5.20;99.90;;;;;;5077554;28;20482;-76
2022/02/05 09:52:10;;;;;;;1694.20;405.37;;;5.30;99.90;;;;;;5073624;28;20548;-77
2022/02/05 09:54:39;;;;;;;559.73;108.63;;;5.30;99.90;;;;;;5057882;28;20441;-77
2022/02/05 09:57:08;;;;;;;1240.80;262.50;;;5.40;99.90;;;;;;5057660;28;20446;-78
2022/02/05 09:59:40;;;;;;;1517.00;277.27;;;5.40;99.90;;;;;;5075645;28;20479;-77
2022/02/05 10:02:19;;;;;;;976.23;173.80;;;5.40;99.90;;;;;;5057917;28;20494;-77
2022/02/05 10:05:03;;;;;;;312.50;37.27;;;5.50;99.90;;;;;;5077569;28;20493;-78
2022/02/05 10:07:57;;;;;;;1937.93;487.60;;;5.60;99.90;;;;;;5057411;28;20452;-77
2022/02/05 10:10:37;;;;;;;1480.70;325.47;;;5.60;99.90;;;;;;5064792;28;20950;-78
2022/02/05 10:13:10;;;;;;;461.63;56.20;;;5.70;99.90;;;;;;5057358;28;20523;-76
2022/02/05 10:15:41;;;;;;;73.20;19.50;;;5.70;99.90;;;;;;5074345;28;20469;-77
2022/02/05 10:18:22;;;;;;;365.60;53.37;;;5.70;99.90;;;;;;5058149;28;20877;-77
2022/02/05 10:20:52;;;;;;;576.50;102.00;;;5.70;99.90;;;;;;5064648;28;20957;-77
2022/02/05 10:23:21;;;;;;;499.03;96.40;;;5.70;99.90;;;;;;5066814;28;20824;-77
2022/02/05 10:25:50;;;;;;;388.10;55.47;;;5.80;99.90;;;;;;5075133;28;20473;-77
2022/02/05 10:28:19;;;;;;;153.67;36.10;;;5.80;99.90;;;;;;5067073;28;20482;-77
2022/02/05 10:30:50;;;;;;;362.30;70.43;;;5.80;99.90;;;;;;5095291;28;20518;-77
2022/02/05 10:33:22;;;;;;;603.17;60.00;;;5.90;99.90;;;;;;5058289;28;20552;-77
2022/02/05 10:36:01;;;;;;;370.37;50.40;;;5.90;99.90;;;;;;5057080;28;20456;-77
2022/02/05 10:38:53;;;;;;;318.20;39.17;;;5.90;99.90;;;;;;5056937;28;21005;-77
2022/02/05 10:44:14;;;;;;;409.80;63.87;;;6.00;99.90;;;;;;5073666;28;20499;-77
2022/02/05 10:46:43;;;;;;;425.10;52.17;;;6.00;99.90;;;;;;5056300;28;20480;-76
2022/02/05 10:49:13;;;;;;;343.80;64.47;;;6.00;99.90;;;;;;5078350;28;20467;-77
2022/02/05 10:51:46;;;;;;;302.77;48.60;;;6.00;99.90;;;;;;5095361;28;20495;-77
2022/02/05 10:54:24;;;;;;;292.20;36.43;;;6.10;99.90;;;;;;5079926;28;20448;-78
2022/02/05 10:57:05;;;;;;;355.37;56.03;;;6.20;99.90;;;;;;5077928;28;20483;-77
2022/02/05 11:05:09;;;;;;;233.30;46.13;;;6.20;99.90;;;;;;5096093;28;20462;-78
2022/02/05 11:05:40;;;;;;;445.20;73.70;;;6.30;99.90;;;;;;5081739;28;20968;-77
2022/02/05 11:08:14;;;;;;;435.43;71.50;;;6.30;99.90;;;;;;5056913;28;20501;-78
2022/02/05 11:11:38;;;;;;;313.37;55.00;;;6.30;99.90;;;;;;5058253;28;20450;-79
2022/02/05 11:19:48;;;;;;;426.20;51.33;;;6.40;99.90;;;;;;5075440;28;21060;-78
2022/02/05 11:22:17;;;;;;;430.97;56.77;;;6.40;99.90;;;;;;5070049;28;20464;-78
2022/02/05 11:24:49;;;;;;;239.43;45.33;;;6.40;99.90;;;;;;5078715;28;20491;-78
2022/02/05 11:27:18;;;;;;;361.47;69.87;;;6.40;99.90;;;;;;5077734;28;20475;-78
2022/02/05 11:29:48;;;;;;;443.97;97.03;;;6.50;99.90;;;;;;5078221;28;20465;-78
2022/02/05 11:32:21;;;;;;;459.93;85.23;;;6.50;99.90;;;;;;5075988;28;20455;-78
2022/02/05 11:35:09;;;;;;;347.63;85.07;;;6.50;99.90;;;;;;5078083;28;20492;-79
2022/02/05 11:37:56;;;;;;;387.17;53.77;;;6.50;99.90;;;;;;5079008;28;20424;-78
2022/02/05 11:40:53;;;;;;;515.87;72.20;;;6.50;99.90;;;;;;5077137;28;20533;-77
2022/02/05 11:43:24;;;;;;;471.13;56.27;;;6.60;99.90;;;;;;5094600;28;20432;-78
2022/02/05 11:46:13;;;;;;;391.20;74.03;;;6.60;99.90;;;;;;5076054;28;20967;-78
2022/02/05 11:48:44;;;;;;;391.13;58.03;;;6.60;99.90;;;;;;5075788;28;20985;-78
2022/02/05 11:51:17;;;;;;;553.80;74.10;;;6.60;99.90;;;;;;5094174;28;20480;-77
2022/02/05 11:54:15;;;;;;;372.70;65.83;;;6.60;99.90;;;;;;5094107;28;20456;-78
2022/02/05 11:56:56;;;;;;;260.03;56.63;;;6.60;99.90;;;;;;5075786;28;20444;-77
2022/02/05 11:59:27;;;;;;;291.30;39.53;;;6.60;99.90;;;;;;5076785;28;20478;-78
2022/02/05 12:02:15;;;;;;;478.33;71.23;;;6.60;99.90;;;;;;5060609;28;20481;-78
2022/02/05 12:04:43;;;;;;;176.67;36.57;;;6.70;99.90;;;;;;5056037;28;20491;-78
2022/02/05 12:07:13;;;;;;;357.07;79.47;;;6.70;99.90;;;;;;5073868;28;20552;-78
2022/02/05 12:09:58;;;;;;;465.03;98.80;;;6.70;99.90;;;;;;5055902;28;20500;-78
2022/02/05 12:12:40;;;;;;;343.07;66.27;;;6.80;99.90;;;;;;5055980;28;20955;-78
2022/02/05 12:15:26;;;;;;;381.13;86.40;;;6.80;99.90;;;;;;5073794;28;20429;-78
2022/02/05 12:21:12;;;;;;;597.63;110.70;;;6.70;99.90;;;;;;5067173;28;20527;-77
2022/02/05 12:26:59;;;;;;;514.67;107.07;;;6.70;99.90;;;;;;5074974;28;20551;-77
2022/02/05 12:29:30;;;;;;;167.17;46.17;;;6.70;99.90;;;;;;5093487;28;20463;-78
2022/02/05 12:31:59;;;;;;;538.73;109.60;;;6.70;99.90;;;;;;5075443;28;20547;-78
2022/02/05 12:34:49;;;;;;;556.87;123.17;;;6.70;99.90;;;;;;5093547;28;21066;-78
2022/02/05 12:37:17;;;;;;;92.73;34.17;;;6.80;99.90;;;;;;5090771;28;20456;-78
2022/02/05 12:39:46;;;;;;;110.20;32.70;;;6.80;99.90;;;;;;5078569;28;20478;-78
2022/02/05 12:42:16;;;;;;;494.03;85.67;;;6.80;99.90;;;;;;5078964;28;20440;-77
2022/02/05 12:44:46;;;;;;;361.20;71.83;;;6.80;99.90;;;;;;5078285;28;20551;-77
2022/02/05 12:47:23;;;;;;;100.00;35.90;;;6.80;99.90;;;;;;5061560;28;20552;-78
2022/02/05 12:49:56;;;;;;;137.77;53.73;;;6.90;99.90;;;;;;5058931;28;20472;-78
2022/02/05 12:52:25;;;;;;;413.43;86.43;;;6.90;99.90;;;;;;5058900;28;20485;-77
2022/02/05 12:55:00;;;;;;;438.60;100.40;;;6.90;99.90;;;;;;5058646;28;20483;-78
2022/02/05 12:57:29;;;;;;;313.80;89.67;;;6.90;99.90;;;;;;5081059;28;20542;-78
2022/02/05 13:00:07;;;;;;;418.97;84.17;;;6.90;99.90;;;;;;5078762;28;20468;-78
2022/02/05 13:02:35;;;;;;;185.87;46.30;;;6.90;99.90;;;;;;5097800;28;20436;-78
2022/02/05 13:05:05;;;;;;;424.10;100.23;;;6.90;99.90;;;;;;5100858;28;20437;-79
2022/02/05 13:07:34;;;;;;;402.23;81.13;;;6.90;99.90;;;;;;5080613;28;20509;-78
2022/02/05 13:10:06;;;;;;;313.17;74.63;;;6.90;99.90;;;;;;5076662;28;20470;-79
2022/02/05 13:12:37;;;;;;;573.30;133.63;;;6.90;99.90;;;;;;5062741;28;20828;-79
2022/02/05 13:15:21;;;;;;;434.27;98.70;;;6.90;99.90;;;;;;5079831;28;20478;-78
2022/02/05 13:18:06;;;;;;;1689.47;170.00;;;6.90;99.90;;;;;;5079651;28;20951;-78
2022/02/05 13:26:15;;;;;;;493.23;105.23;;;7.00;99.90;;;;;;5082217;28;20490;-78
2022/02/05 13:28:51;;;;;;;411.83;121.77;;;7.00;99.90;;;;;;5076758;28;20483;-78
2022/02/05 13:34:13;;;;;;;1282.37;180.93;;;7.00;99.90;;;;;;5100067;28;20448;-78
2022/02/05 13:36:49;;;;;;;341.70;80.23;;;7.00;99.90;;;;;;5083507;28;20854;-79
2022/02/05 13:39:34;;;;;;;1350.97;280.40;;;7.00;99.90;;;;;;5083546;28;20473;-79
2022/02/05 13:42:09;;;;;;;108.30;50.07;;;7.00;99.90;;;;;;5083723;28;20442;-79
2022/02/05 13:44:45;;;;;;;483.40;107.47;;;7.00;99.90;;;;;;5098182;28;20438;-79
2022/02/05 13:47:17;;;;;;;328.70;93.57;;;7.00;99.90;;;;;;5081957;28;20512;-79
2022/02/05 13:50:03;;;;;;;320.80;105.83;;;7.00;99.90;;;;;;5062343;28;20466;-79
2022/02/05 13:52:37;;;;;;;714.40;142.83;;;7.00;99.90;;;;;;5060899;28;20506;-79
2022/02/05 13:55:20;;;;;;;339.33;104.70;;;7.00;99.90;;;;;;5079647;28;20423;-79
2022/02/05 13:57:54;;;;;;;191.03;72.17;;;7.00;99.90;;;;;;5062609;28;20440;-79
2022/02/05 14:00:23;;;;;;;458.40;100.83;;;7.00;99.90;;;;;;5081739;28;20468;-78
2022/02/05 14:03:00;;;;;;;617.40;123.90;;;7.00;99.90;;;;;;5081078;28;20429;-78
2022/02/05 14:05:28;;;;;;;577.73;134.87;;;7.00;99.90;;;;;;5068807;28;20467;-78
2022/02/05 14:07:56;;;;;;;273.20;85.53;;;7.00;99.90;;;;;;5061637;28;20465;-79
2022/02/05 14:10:25;;;;;;;272.50;90.27;;;7.00;99.90;;;;;;5062249;28;20517;-79
2022/02/05 14:12:55;;;;;;;1326.70;263.27;;;7.00;99.90;;;;;;5061497;28;20455;-78
2022/02/05 14:15:24;;;;;;;547.13;163.40;;;7.10;99.90;;;;;;5057772;28;20441;-77
2022/02/05 14:18:07;;;;;;;602.87;175.27;;;7.10;99.90;;;;;;5074811;28;20450;-77
2022/02/05 14:20:47;;;;;;;482.63;152.67;;;7.10;99.90;;;;;;5057282;28;20473;-77
2022/02/05 14:23:18;;;;;;;327.67;94.10;;;7.10;99.90;;;;;;5057037;28;20485;-77
2022/02/05 14:25:59;;;;;;;633.93;174.23;;;7.10;99.90;;;;;;5075032;28;20420;-77
2022/02/05 14:28:35;;;;;;;598.93;185.57;;;7.10;99.90;;;;;;5074088;28;21027;-77
2022/02/05 14:31:09;;;;;;;497.07;120.13;;;7.10;99.90;;;;;;5056859;28;20463;-77
2022/02/05 14:36:41;;;;;;;1125.80;310.00;;;7.10;99.90;;;;;;5058302;28;20452;-78
2022/02/05 14:41:53;;;;;;;932.87;232.97;;;7.10;99.90;;;;;;5034863;28;20442;-76
2022/02/05 14:44:22;;;;;;;492.23;168.97;;;7.10;99.90;;;;;;5056684;28;20476;-77
2022/02/05 14:46:52;;;;;;;788.37;228.67;;;7.10;99.90;;;;;;5058757;28;20454;-77
2022/02/05 14:49:21;;;;;;;1833.57;435.87;;;7.10;99.90;;;;;;5088488;28;20487;-77